createdAt,value
2023-04-12T00:00:45.980Z,100639.47
2023-04-12T00:03:20.319Z,100634.03
2023-04-12T00:05:48.455Z,100636.88
2023-04-12T00:08:16.899Z,100628.63
2023-04-12T00:10:58.168Z,100623.06
2023-04-12T00:13:25.035Z,100626.19
2023-04-12T00:15:52.862Z,100623.69
2023-04-12T00:18:29.424Z,100621.44
2023-04-12T00:20:56.448Z,100618.78
2023-04-12T00:23:24.782Z,100613.31
2023-04-12T00:25:52.173Z,100608.91
2023-04-12T00:28:19.554Z,100612.44
2023-04-12T00:30:48.326Z,100615.91
2023-04-12T00:33:16.943Z,100611.41
2023-04-12T00:35:43.739Z,100609.09
2023-04-12T00:38:13.877Z,100606.72
2023-04-12T00:40:43.999Z,100601.78
2023-04-12T00:43:18.959Z,100602.81
2023-04-12T00:45:46.581Z,100594.53
2023-04-12T00:48:14.326Z,100596.72
2023-04-12T00:50:45.272Z,100590.19
2023-04-12T00:53:14.349Z,100582.31
2023-04-12T00:55:48.439Z,100587.88
2023-04-12T00:58:16.221Z,100587.72
2023-04-12T01:00:50.942Z,100581.31
2023-04-12T01:03:24.390Z,100580.03
2023-04-12T01:05:59.099Z,100583.28
2023-04-12T01:08:40.331Z,100575.19
2023-04-12T01:11:27.025Z,100576.41
2023-04-12T01:13:54.363Z,100566.78
2023-04-12T01:16:21.696Z,100565.78
2023-04-12T01:18:51.748Z,100558.75
2023-04-12T01:21:36.129Z,100549.56
2023-04-12T01:24:14.222Z,100549.13
2023-04-12T01:26:45.485Z,100553.81
2023-04-12T01:29:14.839Z,100549.56
2023-04-12T01:31:42.681Z,100542.81
2023-04-12T01:34:11.615Z,100532.59
2023-04-12T01:36:39.940Z,100532.28
2023-04-12T01:39:06.893Z,100530.88
2023-04-12T01:41:34.196Z,100526.25
2023-04-12T01:44:01.552Z,100531.91
2023-04-12T01:46:28.429Z,100523.03
2023-04-12T01:48:55.248Z,100522.53
2023-04-12T01:51:35.662Z,100522.91
2023-04-12T01:54:22.653Z,100514.69
2023-04-12T01:56:51.599Z,100506.72
2023-04-12T01:59:19.184Z,100498.38
2023-04-12T02:01:47.053Z,100497.72
2023-04-12T02:04:14.773Z,100502.03
2023-04-12T02:06:42.523Z,100502.16
2023-04-12T02:09:09.767Z,100496.78
2023-04-12T02:11:37.076Z,100493.91
2023-04-12T02:14:03.749Z,100490.31
2023-04-12T02:16:32.703Z,100487.56
2023-04-12T02:18:59.540Z,100475.00
2023-04-12T02:21:27.770Z,100470.41
2023-04-12T02:23:55.249Z,100464.13
2023-04-12T02:26:23.605Z,100452.34
2023-04-12T02:28:50.527Z,100454.75
2023-04-12T02:31:17.609Z,100453.41
2023-04-12T02:33:44.373Z,100444.19
2023-04-12T02:36:11.677Z,100435.75
2023-04-12T02:38:38.791Z,100438.59
2023-04-12T02:41:05.800Z,100441.66
2023-04-12T02:43:32.916Z,100436.06
2023-04-12T02:46:03.092Z,100428.47
2023-04-12T02:48:30.945Z,100426.91
2023-04-12T02:50:58.475Z,100425.66
2023-04-12T02:53:28.035Z,100413.91
2023-04-12T02:55:55.351Z,100409.31
2023-04-12T02:58:22.206Z,100409.25
2023-04-12T03:00:50.904Z,100405.81
2023-04-12T03:03:18.132Z,100402.94
2023-04-12T03:05:47.364Z,100395.97
2023-04-12T03:08:14.184Z,100390.19
2023-04-12T03:10:41.215Z,100382.03
2023-04-12T03:13:07.922Z,100377.06
2023-04-12T03:15:36.470Z,100375.06
2023-04-12T03:18:03.284Z,100368.56
2023-04-12T03:20:30.372Z,100363.00
2023-04-12T03:22:57.213Z,100357.94
2023-04-12T03:25:24.328Z,100355.00
2023-04-12T03:27:52.813Z,100348.53
2023-04-12T03:30:20.752Z,100340.88
2023-04-12T03:32:47.286Z,100331.47
2023-04-12T03:35:14.163Z,100333.28
2023-04-12T03:37:43.899Z,100321.88
2023-04-12T03:40:12.714Z,100317.09
2023-04-12T03:42:39.914Z,100317.50
2023-04-12T03:45:07.617Z,100305.22
2023-04-12T03:47:34.527Z,100307.97
2023-04-12T03:50:12.050Z,100298.63
2023-04-12T03:52:39.687Z,100279.03
2023-04-12T03:55:08.267Z,100278.69
2023-04-12T03:57:35.583Z,100275.81
2023-04-12T04:00:02.753Z,100265.13
2023-04-12T04:02:30.259Z,100265.09
2023-04-12T04:04:57.273Z,100255.00
2023-04-12T04:07:24.240Z,100268.38
2023-04-12T04:09:51.060Z,100263.75
2023-04-12T04:12:17.688Z,100255.78
2023-04-12T04:14:45.606Z,100251.44
2023-04-12T04:17:12.400Z,100239.50
2023-04-12T04:19:39.503Z,100232.50
2023-04-12T04:22:06.888Z,100231.22
2023-04-12T04:24:34.452Z,100228.25
2023-04-12T04:27:02.419Z,100229.13
2023-04-12T04:29:31.152Z,100224.31
2023-04-12T04:31:58.271Z,100222.13
2023-04-12T04:34:25.658Z,100215.69
2023-04-12T04:36:53.894Z,100210.63
2023-04-12T04:39:21.024Z,100205.25
2023-04-12T04:41:55.189Z,100199.03
2023-04-12T04:44:22.594Z,100189.81
2023-04-12T04:46:49.437Z,100191.81
2023-04-12T04:49:17.296Z,100182.53
2023-04-12T04:51:44.198Z,100184.41
2023-04-12T04:54:11.399Z,100180.47
2023-04-12T04:56:39.181Z,100174.50
2023-04-12T04:59:05.737Z,100167.72
2023-04-12T05:01:36.898Z,100170.88
2023-04-12T05:04:04.555Z,100159.28
2023-04-12T05:06:31.294Z,100149.84
2023-04-12T05:08:58.093Z,100158.41
2023-04-12T05:11:25.687Z,100144.34
2023-04-12T05:13:52.551Z,100135.63
2023-04-12T05:16:19.658Z,100140.19
2023-04-12T05:18:47.556Z,100138.56
2023-04-12T05:21:14.326Z,100133.38
2023-04-12T05:23:45.577Z,100135.84
2023-04-12T05:26:12.402Z,100125.53
2023-04-12T05:28:38.934Z,100121.50
2023-04-12T05:31:06.359Z,100129.16
2023-04-12T05:33:34.461Z,100131.78
2023-04-12T05:36:01.907Z,100129.25
2023-04-12T05:38:30.220Z,100135.16
2023-04-12T05:40:57.126Z,100127.19
2023-04-12T05:43:24.243Z,100116.78
2023-04-12T05:45:51.460Z,100118.63
2023-04-12T05:48:19.303Z,100115.97
2023-04-12T05:50:53.143Z,100109.34
2023-04-12T05:53:22.554Z,100111.94
2023-04-12T05:55:49.722Z,100109.88
2023-04-12T05:58:17.079Z,100110.19
2023-04-12T06:00:44.067Z,100105.53
2023-04-12T06:03:11.829Z,100097.78
2023-04-12T06:05:39.074Z,100097.09
2023-04-12T06:08:06.089Z,100103.50
2023-04-12T06:10:32.879Z,100091.66
2023-04-12T06:13:01.753Z,100087.16
2023-04-12T06:15:29.102Z,100099.56
2023-04-12T06:17:55.963Z,100082.88
2023-04-12T06:20:23.708Z,100073.00
2023-04-12T06:22:50.847Z,100062.09
2023-04-12T06:25:18.095Z,100060.03
2023-04-12T06:27:44.928Z,100057.75
2023-04-12T06:30:12.053Z,100050.56
2023-04-12T06:32:39.457Z,100052.91
2023-04-12T06:35:06.332Z,100049.25
2023-04-12T06:37:32.938Z,100058.22
2023-04-12T06:39:59.862Z,100048.81
2023-04-12T06:42:26.412Z,100044.56
2023-04-12T06:44:53.593Z,100030.16
2023-04-12T06:47:22.938Z,100015.44
2023-04-12T06:49:53.836Z,100007.22
2023-04-12T06:52:24.239Z,100007.75
2023-04-12T06:54:50.952Z,99999.72
2023-04-12T06:57:17.564Z,99992.72
2023-04-12T06:59:44.575Z,99991.94
2023-04-12T07:02:12.145Z,99996.94
2023-04-12T07:04:39.009Z,99999.91
2023-04-12T07:07:06.537Z,99995.88
2023-04-12T07:09:34.569Z,99988.56
2023-04-12T07:12:02.548Z,99986.69
2023-04-12T07:14:29.393Z,99982.38
2023-04-12T07:16:56.072Z,99990.44
2023-04-12T07:19:22.901Z,99980.13
2023-04-12T07:21:49.433Z,99974.59
2023-04-12T07:24:16.125Z,99976.59
2023-04-12T07:26:42.856Z,99977.81
2023-04-12T07:29:09.577Z,99970.84
2023-04-12T07:31:36.421Z,99952.50
2023-04-12T07:34:03.061Z,99950.44
2023-04-12T07:36:29.776Z,99961.59
2023-04-12T07:38:57.002Z,99941.16
2023-04-12T07:41:23.956Z,99950.63
2023-04-12T07:43:51.086Z,99946.06
2023-04-12T07:46:21.792Z,99937.38
2023-04-12T07:48:49.593Z,99939.78
2023-04-12T07:51:16.458Z,99941.84
2023-04-12T07:53:48.152Z,99940.00
2023-04-12T07:56:15.192Z,99942.22
2023-04-12T07:58:42.152Z,99933.09
2023-04-12T08:01:09.203Z,99934.09
2023-04-12T08:03:36.326Z,99914.44
2023-04-12T08:06:11.696Z,99920.84
2023-04-12T08:08:38.896Z,99913.66
2023-04-12T08:11:13.325Z,99917.72
2023-04-12T08:13:40.640Z,99903.31
2023-04-12T08:16:09.666Z,99908.94
2023-04-12T08:18:42.174Z,99901.28
2023-04-12T08:21:10.569Z,99895.47
2023-04-12T08:23:39.540Z,99895.47
2023-04-12T08:26:07.262Z,99900.03
2023-04-12T08:28:41.764Z,99887.56
2023-04-12T08:31:09.377Z,99889.94
2023-04-12T08:33:40.057Z,99877.56
2023-04-12T08:36:08.854Z,99874.25
2023-04-12T08:38:45.456Z,99872.53
2023-04-12T08:41:14.922Z,99868.38
2023-04-12T08:43:46.620Z,99858.28
2023-04-12T08:46:26.266Z,99858.25
2023-04-12T08:48:59.633Z,99848.31
2023-04-12T08:51:28.764Z,99848.88
2023-04-12T08:54:12.382Z,99848.03
2023-04-12T08:56:45.116Z,99845.09
2023-04-12T08:59:16.777Z,99847.16
2023-04-12T09:01:44.714Z,99834.72
2023-04-12T09:04:13.884Z,99828.28
2023-04-12T09:06:41.542Z,99824.22
2023-04-12T09:09:10.478Z,99817.69
2023-04-12T09:11:40.010Z,99811.38
2023-04-12T09:14:36.394Z,99806.50
2023-04-12T09:17:03.655Z,99796.22
2023-04-12T09:19:34.658Z,99796.16
2023-04-12T09:22:06.461Z,99789.72
2023-04-12T09:24:47.318Z,99781.66
2023-04-12T09:27:14.281Z,99775.88
2023-04-12T09:29:41.329Z,99761.72
2023-04-12T09:32:09.669Z,99751.53
2023-04-12T09:34:37.660Z,99744.41
2023-04-12T09:37:17.510Z,99732.34
2023-04-12T09:39:44.941Z,99728.78
2023-04-12T09:42:29.922Z,99720.41
2023-04-12T09:45:02.138Z,99719.13
2023-04-12T09:47:40.179Z,99721.09
2023-04-12T09:50:10.414Z,99706.28
2023-04-12T09:52:40.514Z,99697.88
2023-04-12T09:55:11.049Z,99698.22
2023-04-12T09:57:39.742Z,99686.31
2023-04-12T10:00:18.295Z,99691.94
2023-04-12T10:02:48.129Z,99674.63
2023-04-12T10:05:23.008Z,99675.06
2023-04-12T10:07:50.832Z,99667.22
2023-04-12T10:10:19.365Z,99666.34
2023-04-12T10:12:47.913Z,99661.31
2023-04-12T10:15:18.928Z,99663.78
2023-04-12T10:17:48.170Z,99664.22
2023-04-12T10:20:17.391Z,99667.88
2023-04-12T10:22:46.013Z,99662.00
2023-04-12T10:25:21.067Z,99656.53
2023-04-12T10:27:48.272Z,99649.22
2023-04-12T10:30:33.230Z,99651.47
2023-04-12T10:33:04.386Z,99641.91
2023-04-12T10:35:49.715Z,99636.84
2023-04-12T10:38:17.217Z,99639.00
2023-04-12T10:41:03.602Z,99639.84
2023-04-12T10:43:47.850Z,99626.03
2023-04-12T10:46:36.361Z,99617.63
2023-04-12T10:49:11.365Z,99616.47
2023-04-12T10:51:38.948Z,99621.97
2023-04-12T10:54:09.390Z,99618.00
2023-04-12T10:56:38.750Z,99621.25
2023-04-12T10:59:07.866Z,99616.09
2023-04-12T11:01:38.650Z,99612.97
2023-04-12T11:04:07.411Z,99608.03
2023-04-12T11:07:06.053Z,99607.22
2023-04-12T11:09:48.755Z,99602.31
2023-04-12T11:12:16.347Z,99611.66
2023-04-12T11:14:46.340Z,99601.63
2023-04-12T11:17:17.310Z,99615.75
2023-04-12T11:19:45.935Z,99615.63
2023-04-12T11:22:16.659Z,99604.47
2023-04-12T11:24:44.850Z,99608.03
2023-04-12T11:27:12.987Z,99606.78
2023-04-12T11:29:40.603Z,99605.00
2023-04-12T11:32:10.568Z,99611.69
2023-04-12T11:34:38.703Z,99615.19
2023-04-12T11:37:08.341Z,99614.16
2023-04-12T11:39:36.102Z,99623.47
2023-04-12T11:42:06.170Z,99627.88
2023-04-12T11:44:47.837Z,99627.28
2023-04-12T11:47:23.639Z,99619.59
2023-04-12T11:49:52.800Z,99625.13
2023-04-12T11:52:20.255Z,99624.59
2023-04-12T11:54:48.302Z,99621.72
2023-04-12T11:57:16.507Z,99624.31
2023-04-12T11:59:45.184Z,99624.75
2023-04-12T12:02:23.530Z,99627.44
2023-04-12T12:04:56.881Z,99623.84
2023-04-12T12:07:25.188Z,99622.13
2023-04-12T12:09:55.111Z,99619.03
2023-04-12T12:12:25.630Z,99616.47
2023-04-12T12:14:54.162Z,99614.63
2023-04-12T12:17:21.336Z,99619.47
2023-04-12T12:19:49.430Z,99618.13
2023-04-12T12:22:18.368Z,99611.94
2023-04-12T12:24:54.180Z,99605.75
2023-04-12T12:27:23.257Z,99604.84
2023-04-12T12:29:51.880Z,99604.72
2023-04-12T12:32:19.996Z,99602.66
2023-04-12T12:34:54.050Z,99605.19
2023-04-12T12:37:22.060Z,99611.88
2023-04-12T12:40:01.977Z,99602.34
2023-04-12T12:42:29.163Z,99602.34
2023-04-12T12:44:56.984Z,99595.78
2023-04-12T12:47:25.479Z,99599.22
2023-04-12T12:49:52.766Z,99596.34
2023-04-12T12:52:22.593Z,99591.69
2023-04-12T12:54:49.948Z,99599.72
2023-04-12T12:57:17.111Z,99579.25
2023-04-12T12:59:47.466Z,99582.50
2023-04-12T13:02:24.810Z,99582.34
2023-04-12T13:04:52.503Z,99580.66
2023-04-12T13:07:19.456Z,99581.75
2023-04-12T13:09:47.788Z,99581.66
2023-04-12T13:12:16.957Z,99578.41
2023-04-12T13:14:43.715Z,99563.28
2023-04-12T13:17:11.660Z,99563.47
2023-04-12T13:19:38.265Z,99563.88
2023-04-12T13:22:06.824Z,99560.03
2023-04-12T13:24:38.460Z,99557.69
2023-04-12T13:27:05.841Z,99555.63
2023-04-12T13:29:33.733Z,99548.41
2023-04-12T13:32:01.356Z,99537.63
2023-04-12T13:34:28.849Z,99533.88
2023-04-12T13:36:56.008Z,99527.13
2023-04-12T13:39:24.481Z,99534.84
2023-04-12T13:41:52.078Z,99521.97
2023-04-12T13:44:27.642Z,99519.66
2023-04-12T13:46:55.577Z,99510.91
2023-04-12T13:49:22.489Z,99509.44
2023-04-12T13:51:49.977Z,99505.31
2023-04-12T13:54:17.725Z,99506.78
2023-04-12T13:56:44.888Z,99496.63
2023-04-12T13:59:13.555Z,99499.44
2023-04-12T14:01:41.130Z,99493.56
2023-04-12T14:04:07.986Z,99496.84
2023-04-12T14:06:34.923Z,99495.22
2023-04-12T14:09:01.765Z,99494.44
2023-04-12T14:11:29.620Z,99482.63
2023-04-12T14:13:56.397Z,99482.88
2023-04-12T14:16:23.164Z,99484.50
2023-04-12T14:18:50.150Z,99476.47
2023-04-12T14:21:17.498Z,99478.00
2023-04-12T14:23:45.751Z,99475.31
2023-04-12T14:26:16.384Z,99463.22
2023-04-12T14:28:43.961Z,99471.72
2023-04-12T14:31:10.631Z,99472.56
2023-04-12T14:33:37.784Z,99473.72
2023-04-12T14:36:08.505Z,99466.34
2023-04-12T14:38:35.643Z,99467.41
2023-04-12T14:41:14.432Z,99447.06
2023-04-12T14:43:43.499Z,99459.41
2023-04-12T14:46:13.368Z,99457.13
2023-04-12T14:48:41.745Z,99465.31
2023-04-12T14:51:08.974Z,99456.22
2023-04-12T14:53:38.295Z,99453.94
2023-04-12T14:56:06.971Z,99458.00
2023-04-12T14:58:34.751Z,99444.28
2023-04-12T15:01:04.318Z,99444.31
2023-04-12T15:03:35.208Z,99446.34
2023-04-12T15:06:03.630Z,99450.69
2023-04-12T15:08:35.802Z,99442.13
2023-04-12T15:11:03.564Z,99443.06
2023-04-12T15:13:33.766Z,99440.00
2023-04-12T15:16:04.946Z,99438.69
2023-04-12T15:18:32.344Z,99439.44
2023-04-12T15:21:00.656Z,99436.22
2023-04-12T15:23:27.885Z,99436.13
2023-04-12T15:26:03.877Z,99438.97
2023-04-12T15:28:33.050Z,99433.00
2023-04-12T15:31:01.997Z,99429.56
2023-04-12T15:33:30.864Z,99430.31
2023-04-12T15:35:59.226Z,99421.44
2023-04-12T15:38:27.485Z,99427.78
2023-04-12T15:40:55.788Z,99429.94
2023-04-12T15:43:23.638Z,99424.66
2023-04-12T15:45:53.226Z,99419.31
2023-04-12T15:48:20.983Z,99409.97
2023-04-12T15:50:48.857Z,99415.97
2023-04-12T15:53:16.981Z,99418.41
2023-04-12T15:55:47.124Z,99418.97
2023-04-12T15:58:14.982Z,99414.97
2023-04-12T16:00:42.818Z,99410.44
2023-04-12T16:03:10.505Z,99403.09
2023-04-12T16:05:37.400Z,99410.59
2023-04-12T16:08:04.897Z,99410.41
2023-04-12T16:10:34.205Z,99411.03
2023-04-12T16:13:01.093Z,99401.22
2023-04-12T16:15:28.014Z,99403.56
2023-04-12T16:17:56.379Z,99404.16
2023-04-12T16:20:23.868Z,99396.94
2023-04-12T16:22:54.307Z,99403.69
2023-04-12T16:25:25.307Z,99406.88
2023-04-12T16:27:52.255Z,99397.16
2023-04-12T16:30:20.586Z,99399.53
2023-04-12T16:32:47.992Z,99394.16
2023-04-12T16:35:15.683Z,99392.47
2023-04-12T16:37:43.991Z,99397.13
2023-04-12T16:40:20.765Z,99394.41
2023-04-12T16:42:48.191Z,99398.97
2023-04-12T16:45:15.152Z,99394.31
2023-04-12T16:47:43.354Z,99393.88
2023-04-12T16:50:11.262Z,99380.13
2023-04-12T16:52:40.641Z,99386.78
2023-04-12T16:55:11.112Z,99382.25
2023-04-12T16:57:42.346Z,99385.97
2023-04-12T17:00:19.202Z,99386.41
2023-04-12T17:02:47.168Z,99373.97
2023-04-12T17:05:17.697Z,99369.63
2023-04-12T17:07:51.359Z,99378.25
2023-04-12T17:10:18.626Z,99375.13
2023-04-12T17:12:46.377Z,99374.28
2023-04-12T17:15:15.491Z,99374.75
2023-04-12T17:17:42.833Z,99371.38
2023-04-12T17:20:13.716Z,99367.50
2023-04-12T17:22:40.188Z,99366.34
2023-04-12T17:25:06.891Z,99365.00
2023-04-12T17:27:37.556Z,99368.63
2023-04-12T17:30:05.296Z,99365.78
2023-04-12T17:32:33.095Z,99363.34
2023-04-12T17:34:59.864Z,99358.91
2023-04-12T17:37:28.816Z,99360.91
2023-04-12T17:39:58.910Z,99359.94
2023-04-12T17:42:27.825Z,99357.97
2023-04-12T17:44:54.596Z,99362.41
2023-04-12T17:47:22.532Z,99357.88
2023-04-12T17:49:49.619Z,99355.59
2023-04-12T17:52:18.365Z,99352.09
2023-04-12T17:54:46.204Z,99352.59
2023-04-12T17:57:13.510Z,99353.09
2023-04-12T17:59:40.398Z,99353.09
2023-04-12T18:02:07.035Z,99347.03
2023-04-12T18:04:34.853Z,99356.09
2023-04-12T18:07:01.818Z,99340.84
2023-04-12T18:09:28.619Z,99349.00
2023-04-12T18:11:55.314Z,99356.75
2023-04-12T18:14:22.467Z,99362.88
2023-04-12T18:16:49.035Z,99364.91
2023-04-12T18:19:16.625Z,99360.03
2023-04-12T18:21:44.537Z,99361.16
2023-04-12T18:24:10.978Z,99356.00
2023-04-12T18:26:39.060Z,99354.91
2023-04-12T18:29:06.455Z,99346.59
2023-04-12T18:31:33.431Z,99339.78
2023-04-12T18:34:03.613Z,99339.41
2023-04-12T18:36:31.424Z,99336.53
2023-04-12T18:38:59.471Z,99338.81
2023-04-12T18:41:26.768Z,99341.41
2023-04-12T18:43:54.705Z,99342.09
2023-04-12T18:46:22.214Z,99341.31
2023-04-12T18:48:52.310Z,99346.09
2023-04-12T18:51:22.363Z,99345.19
2023-04-12T18:53:50.430Z,99352.81
2023-04-12T18:56:23.173Z,99356.88
2023-04-12T18:58:55.590Z,99361.41
2023-04-12T19:01:23.406Z,99354.00
2023-04-12T19:03:51.339Z,99346.47
2023-04-12T19:06:18.949Z,99355.13
2023-04-12T19:08:46.202Z,99354.31
2023-04-12T19:11:14.150Z,99355.75
2023-04-12T19:13:41.294Z,99360.94
2023-04-12T19:16:08.254Z,99358.72
2023-04-12T19:18:36.499Z,99355.59
2023-04-12T19:21:04.475Z,99354.22
2023-04-12T19:23:33.338Z,99356.38
2023-04-12T19:26:00.720Z,99359.94
2023-04-12T19:28:29.153Z,99374.13
2023-04-12T19:31:01.877Z,99371.13
2023-04-12T19:33:29.055Z,99372.56
2023-04-12T19:35:57.296Z,99375.13
2023-04-12T19:38:24.298Z,99381.41
2023-04-12T19:40:51.586Z,99383.94
2023-04-12T19:43:21.353Z,99386.34
2023-04-12T19:45:48.472Z,99387.19
2023-04-12T19:48:17.132Z,99387.53
2023-04-12T19:50:46.355Z,99385.38
2023-04-12T19:53:18.361Z,99381.03
2023-04-12T19:55:45.393Z,99383.84
2023-04-12T19:58:13.596Z,99376.88
2023-04-12T20:00:45.176Z,99388.66
2023-04-12T20:03:12.644Z,99391.56
2023-04-12T20:05:43.128Z,99384.69
2023-04-12T20:08:11.312Z,99389.25
2023-04-12T20:10:39.072Z,99385.09
2023-04-12T20:13:15.170Z,99386.66
2023-04-12T20:15:45.389Z,99385.38
2023-04-12T20:18:14.119Z,99383.19
2023-04-12T20:20:46.063Z,99394.91
2023-04-12T20:23:15.908Z,99382.59
2023-04-12T20:25:49.887Z,99398.59
2023-04-12T20:28:18.953Z,99396.09
2023-04-12T20:30:49.357Z,99409.88
2023-04-12T20:33:16.855Z,99391.78
2023-04-12T20:35:45.281Z,99390.47
2023-04-12T20:38:13.217Z,99388.38
2023-04-12T20:40:41.623Z,99391.81
2023-04-12T20:43:09.867Z,99387.63
2023-04-12T20:45:38.247Z,99395.38
2023-04-12T20:48:06.356Z,99392.09
2023-04-12T20:50:33.493Z,99391.72
2023-04-12T20:53:03.272Z,99390.53
2023-04-12T20:55:35.301Z,99377.72
2023-04-12T20:58:04.007Z,99372.44
2023-04-12T21:00:33.476Z,99374.44
2023-04-12T21:03:03.464Z,99371.31
2023-04-12T21:05:34.328Z,99368.94
2023-04-12T21:08:01.197Z,99380.25
2023-04-12T21:10:28.409Z,99383.06
2023-04-12T21:12:55.055Z,99372.69
2023-04-12T21:15:22.141Z,99378.97
2023-04-12T21:17:50.151Z,99389.66
2023-04-12T21:20:16.805Z,99380.59
2023-04-12T21:22:44.756Z,99386.47
2023-04-12T21:25:13.576Z,99386.66
2023-04-12T21:27:41.713Z,99387.41
2023-04-12T21:30:09.696Z,99397.00
2023-04-12T21:32:36.236Z,99400.19
2023-04-12T21:35:05.671Z,99409.09
2023-04-12T21:37:34.101Z,99411.78
2023-04-12T21:40:01.075Z,99411.72
2023-04-12T21:42:29.534Z,99416.38
2023-04-12T21:44:56.237Z,99420.53
2023-04-12T21:47:24.348Z,99423.59
2023-04-12T21:49:52.750Z,99426.44
2023-04-12T21:52:19.691Z,99437.56
2023-04-12T21:54:48.651Z,99437.72
2023-04-12T21:57:15.780Z,99440.25
2023-04-12T21:59:43.484Z,99460.59
2023-04-12T22:02:10.391Z,99458.56
2023-04-12T22:04:44.628Z,99460.44
2023-04-12T22:07:13.211Z,99453.22
2023-04-12T22:09:40.130Z,99450.63
2023-04-12T22:12:06.991Z,99459.66
2023-04-12T22:14:34.944Z,99464.31
2023-04-12T22:17:01.727Z,99466.66
2023-04-12T22:19:29.587Z,99473.53
2023-04-12T22:21:55.916Z,99476.84
2023-04-12T22:24:23.423Z,99471.84
2023-04-12T22:26:50.065Z,99460.03
2023-04-12T22:29:17.579Z,99463.94
2023-04-12T22:31:45.887Z,99465.06
2023-04-12T22:34:12.862Z,99471.00
2023-04-12T22:36:42.428Z,99482.38
2023-04-12T22:39:15.737Z,99486.22
2023-04-12T22:41:42.498Z,99482.69
2023-04-12T22:44:09.643Z,99479.38
2023-04-12T22:46:39.147Z,99468.63
2023-04-12T22:49:06.032Z,99469.19
2023-04-12T22:51:33.963Z,99467.75
2023-04-12T22:54:02.624Z,99475.81
2023-04-12T22:56:30.131Z,99472.16
2023-04-12T22:58:56.846Z,99468.31
2023-04-12T23:01:23.904Z,99468.59
2023-04-12T23:03:51.828Z,99466.47
2023-04-12T23:06:20.587Z,99475.88
2023-04-12T23:08:49.638Z,99473.66
2023-04-12T23:11:16.876Z,99469.16
2023-04-12T23:13:43.400Z,99458.16
2023-04-12T23:16:10.154Z,99462.56
2023-04-12T23:18:37.739Z,99452.84
2023-04-12T23:21:05.323Z,99442.00
2023-04-12T23:23:32.223Z,99443.28
2023-04-12T23:25:59.423Z,99442.06
2023-04-12T23:28:26.724Z,99437.91
2023-04-12T23:30:53.452Z,99443.25
2023-04-12T23:33:20.889Z,99451.53
2023-04-12T23:35:49.353Z,99451.72
2023-04-12T23:38:22.876Z,99451.97
2023-04-12T23:40:55.447Z,99454.00
2023-04-12T23:43:22.763Z,99460.59
2023-04-12T23:45:49.507Z,99473.72
2023-04-12T23:48:19.316Z,99467.38
2023-04-12T23:50:46.169Z,99456.91
2023-04-12T23:53:13.173Z,99453.66
2023-04-12T23:55:41.863Z,99459.13
2023-04-12T23:58:09.316Z,99463.88
